Time;durP1;ratioP1;P1;durP2;ratioP2;P2;SDS_P1;SDS_P2;PMS_P1;PMS_P2;Temp;Humidity;BMP_temperature;BMP_pressure;BME280_temperature;BME280_humidity;BME280_pressure;Samples;Min_cycle;Max_cycle;Signal;HPM_P1;HPM_P2
2023/01/15 00:02:05;;;;;;;1.50;0.40;;;;;;;;;;4852312;29;20089;-79
2023/01/15 00:04:32;;;;;;;0.88;0.40;;;;;;;;;;4850059;29;20060;-80
2023/01/15 00:06:59;;;;;;;0.60;0.25;;;;;;;;;;4849856;29;20519;-78
2023/01/15 00:09:26;;;;;;;1.23;0.40;;;;;;;;;;4849599;29;20131;-80
2023/01/15 00:11:53;;;;;;;1.02;0.30;;;;;;;;;;4864442;29;20133;-80
2023/01/15 00:14:20;;;;;;;2.90;0.40;;;;;;;;;;4849365;29;20060;-80
2023/01/15 00:16:51;;;;;;;0.25;0.25;;;;;;;;;;4849439;29;20059;-79
2023/01/15 00:19:18;;;;;;;0.68;0.30;;;;;;;;;;4849817;29;20060;-80
2023/01/15 00:21:46;;;;;;;0.70;0.32;;;;;;;;;;4864798;29;20063;-79
2023/01/15 00:29:44;;;;;;;0.68;0.35;;;;;;;;;;4868491;29;20084;-78
2023/01/15 00:32:11;;;;;;;1.00;0.40;;;;;;;;;;4849085;29;20060;-78
2023/01/15 00:34:38;;;;;;;0.68;0.30;;;;;;;;;;4849370;29;20505;-81
2023/01/15 00:37:05;;;;;;;0.47;0.30;;;;;;;;;;4849087;29;20057;-81
2023/01/15 00:39:33;;;;;;;1.55;0.40;;;;;;;;;;4850221;29;20056;-80
2023/01/15 00:42:00;;;;;;;0.38;0.25;;;;;;;;;;4864616;29;20053;-80
2023/01/15 00:44:27;;;;;;;0.55;0.30;;;;;;;;;;4848577;29;20060;-79
2023/01/15 00:46:54;;;;;;;0.90;0.35;;;;;;;;;;4848541;29;20116;-80
2023/01/15 00:49:20;;;;;;;0.75;0.70;;;;;;;;;;4849090;29;20060;-80
2023/01/15 00:51:48;;;;;;;0.30;0.20;;;;;;;;;;4864415;29;20143;-80
2023/01/15 00:54:16;;;;;;;0.55;0.20;;;;;;;;;;4864371;29;20049;-80
2023/01/15 00:56:43;;;;;;;1.05;0.20;;;;;;;;;;4861425;29;20049;-80
2023/01/15 00:59:11;;;;;;;0.45;0.20;;;;;;;;;;4925817;29;20434;-80
2023/01/15 01:01:38;;;;;;;0.28;0.20;;;;;;;;;;4925519;29;20084;-80
2023/01/15 01:04:05;;;;;;;0.28;0.22;;;;;;;;;;4925641;29;20061;-80
2023/01/15 01:06:32;;;;;;;0.50;0.30;;;;;;;;;;4925592;29;20079;-80
2023/01/15 01:08:59;;;;;;;0.50;0.30;;;;;;;;;;4873084;29;20063;-80
2023/01/15 01:11:27;;;;;;;0.70;0.17;;;;;;;;;;4864137;29;20055;-81
2023/01/15 01:13:54;;;;;;;0.47;0.30;;;;;;;;;;4849416;29;20056;-80
2023/01/15 01:16:29;;;;;;;3.42;0.47;;;;;;;;;;4848751;29;20048;-79
2023/01/15 01:18:57;;;;;;;0.40;0.30;;;;;;;;;;4864695;29;20103;-80
2023/01/15 01:21:25;;;;;;;0.70;0.45;;;;;;;;;;4849410;29;20052;-80
2023/01/15 01:23:52;;;;;;;0.15;0.15;;;;;;;;;;4849557;29;20065;-79
2023/01/15 01:26:19;;;;;;;0.47;0.40;;;;;;;;;;4848942;29;20083;-81
2023/01/15 01:28:50;;;;;;;0.65;0.30;;;;;;;;;;4848999;29;20135;-80
2023/01/15 01:31:17;;;;;;;0.70;0.20;;;;;;;;;;4848916;29;20139;-79
2023/01/15 01:33:47;;;;;;;0.30;0.20;;;;;;;;;;4848723;29;20489;-80
2023/01/15 01:36:14;;;;;;;0.40;0.20;;;;;;;;;;4848501;29;20064;-80
2023/01/15 01:38:41;;;;;;;0.25;0.20;;;;;;;;;;4848930;29;20060;-82
2023/01/15 01:41:08;;;;;;;0.32;0.22;;;;;;;;;;4878895;29;20048;-84
2023/01/15 01:43:54;;;;;;;0.52;0.30;;;;;;;;;;4849772;29;20143;-83
2023/01/15 01:46:21;;;;;;;0.43;0.30;;;;;;;;;;4846686;29;20052;-83
2023/01/15 01:48:49;;;;;;;0.60;0.20;;;;;;;;;;4862537;29;20509;-83
2023/01/15 01:51:16;;;;;;;0.25;0.15;;;;;;;;;;4847293;29;20041;-84
2023/01/15 01:53:43;;;;;;;0.20;0.20;;;;;;;;;;4847076;29;20079;-84
2023/01/15 01:56:16;;;;;;;0.20;0.20;;;;;;;;;;4848752;29;20056;-83
2023/01/15 01:58:44;;;;;;;0.15;0.13;;;;;;;;;;4866027;29;20087;-84
2023/01/15 02:01:11;;;;;;;0.47;0.30;;;;;;;;;;4864978;29;20052;-84
2023/01/15 02:03:38;;;;;;;0.40;0.20;;;;;;;;;;4853327;29;20057;-82
2023/01/15 02:06:07;;;;;;;1.23;0.20;;;;;;;;;;4852405;29;20050;-81
2023/01/15 02:08:38;;;;;;;0.25;0.20;;;;;;;;;;4865338;29;20049;-81
2023/01/15 02:11:06;;;;;;;0.45;0.30;;;;;;;;;;4929339;29;20136;-81
2023/01/15 02:13:38;;;;;;;0.38;0.25;;;;;;;;;;4914073;29;20061;-81
2023/01/15 02:16:10;;;;;;;0.45;0.10;;;;;;;;;;4946876;28;20513;-81
2023/01/15 02:18:53;;;;;;;0.25;0.20;;;;;;;;;;4876720;29;20048;-81
2023/01/15 02:21:35;;;;;;;0.22;0.20;;;;;;;;;;4888838;29;20075;-82
2023/01/15 02:24:25;;;;;;;0.20;0.17;;;;;;;;;;4886468;28;20063;-81
2023/01/15 02:26:55;;;;;;;0.88;0.15;;;;;;;;;;4880007;28;20067;-81
2023/01/15 02:29:29;;;;;;;0.40;0.25;;;;;;;;;;4885525;29;20053;-81
2023/01/15 02:31:56;;;;;;;0.38;0.10;;;;;;;;;;4854440;29;20052;-81
2023/01/15 02:34:26;;;;;;;1.63;0.22;;;;;;;;;;4853276;29;20052;-81
2023/01/15 02:37:07;;;;;;;0.50;0.20;;;;;;;;;;4853398;29;20076;-81
2023/01/15 02:39:36;;;;;;;1.25;0.28;;;;;;;;;;4853973;29;20057;-81
2023/01/15 02:42:04;;;;;;;0.20;0.20;;;;;;;;;;4853363;29;20056;-81
2023/01/15 02:44:31;;;;;;;0.13;0.10;;;;;;;;;;4882928;29;20052;-79
2023/01/15 02:46:58;;;;;;;0.25;0.10;;;;;;;;;;4852069;29;20478;-80
2023/01/15 02:49:25;;;;;;;0.20;0.20;;;;;;;;;;4866715;29;20426;-79
2023/01/15 02:52:01;;;;;;;0.20;0.20;;;;;;;;;;4851962;29;20063;-79
2023/01/15 02:54:30;;;;;;;0.40;0.20;;;;;;;;;;4867603;29;20146;-79
2023/01/15 02:56:57;;;;;;;0.43;0.22;;;;;;;;;;4851752;29;20048;-79
2023/01/15 02:59:29;;;;;;;0.52;0.20;;;;;;;;;;4851445;29;20139;-79
2023/01/15 03:02:01;;;;;;;0.17;0.10;;;;;;;;;;4851761;29;20409;-79
2023/01/15 03:04:47;;;;;;;0.70;0.17;;;;;;;;;;4867470;29;20079;-80
2023/01/15 03:07:38;;;;;;;0.10;0.10;;;;;;;;;;4883535;29;20059;-79
2023/01/15 03:10:06;;;;;;;1.00;0.30;;;;;;;;;;4868323;29;20245;-80
2023/01/15 03:13:01;;;;;;;0.10;0.10;;;;;;;;;;4852237;29;20060;-81
2023/01/15 03:18:10;;;;;;;0.60;0.30;;;;;;;;;;4871898;29;20048;-83
2023/01/15 03:20:37;;;;;;;0.13;0.10;;;;;;;;;;4867374;29;20048;-81
2023/01/15 03:23:08;;;;;;;0.22;0.22;;;;;;;;;;4852063;29;20056;-83
2023/01/15 03:25:39;;;;;;;0.30;0.10;;;;;;;;;;4852000;29;20048;-81
2023/01/15 03:28:06;;;;;;;0.08;0.08;;;;;;;;;;4852084;29;20053;-81
2023/01/15 03:30:33;;;;;;;0.40;0.20;;;;;;;;;;4853498;29;20065;-81
2023/01/15 03:33:00;;;;;;;0.45;0.10;;;;;;;;;;4852082;29;20084;-82
2023/01/15 03:35:57;;;;;;;0.38;0.20;;;;;;;;;;4852265;29;20098;-81
2023/01/15 03:38:32;;;;;;;1.98;0.15;;;;;;;;;;4866426;29;20063;-81
2023/01/15 03:41:20;;;;;;;0.32;0.22;;;;;;;;;;4848566;29;20059;-84
2023/01/15 03:44:06;;;;;;;0.17;0.10;;;;;;;;;;4880153;29;20067;-80
2023/01/15 03:46:42;;;;;;;0.20;0.10;;;;;;;;;;4880737;29;20051;-79
2023/01/15 03:49:12;;;;;;;0.57;0.20;;;;;;;;;;4865965;29;20127;-79
2023/01/15 03:51:59;;;;;;;0.43;0.30;;;;;;;;;;4865661;29;20059;-80
2023/01/15 03:54:36;;;;;;;0.10;0.10;;;;;;;;;;4865885;29;20076;-80
2023/01/15 03:57:07;;;;;;;0.13;0.10;;;;;;;;;;4866435;29;20060;-80
2023/01/15 03:59:36;;;;;;;0.38;0.20;;;;;;;;;;4851335;29;20055;-82
2023/01/15 04:02:06;;;;;;;0.10;0.10;;;;;;;;;;4851631;29;20052;-81
2023/01/15 04:04:33;;;;;;;0.15;0.15;;;;;;;;;;4851151;29;20063;-82
2023/01/15 04:07:00;;;;;;;0.60;0.10;;;;;;;;;;4850819;29;20429;-82
2023/01/15 04:09:27;;;;;;;0.10;0.10;;;;;;;;;;4865210;29;20061;-80
2023/01/15 04:11:58;;;;;;;0.47;0.15;;;;;;;;;;4849822;29;20052;-80
2023/01/15 04:14:24;;;;;;;0.40;0.13;;;;;;;;;;4849778;29;20052;-80
2023/01/15 04:16:52;;;;;;;0.13;0.00;;;;;;;;;;4849375;29;20147;-78
2023/01/15 04:19:19;;;;;;;0.10;0.10;;;;;;;;;;4849029;29;20052;-80
2023/01/15 04:21:46;;;;;;;0.00;0.00;;;;;;;;;;4850256;29;20528;-79
2023/01/15 04:24:12;;;;;;;1.00;0.15;;;;;;;;;;4864912;29;20091;-79
2023/01/15 04:26:39;;;;;;;0.00;0.00;;;;;;;;;;4864100;29;20125;-79
2023/01/15 04:29:06;;;;;;;0.20;0.10;;;;;;;;;;4848544;29;20508;-81
2023/01/15 04:31:35;;;;;;;0.10;0.10;;;;;;;;;;4849385;29;20045;-81
2023/01/15 04:34:02;;;;;;;0.10;0.10;;;;;;;;;;4851114;29;20060;-80
2023/01/15 04:36:29;;;;;;;0.15;0.15;;;;;;;;;;4850989;29;20053;-82
2023/01/15 04:38:58;;;;;;;0.47;0.10;;;;;;;;;;4862659;29;20053;-82
2023/01/15 04:44:10;;;;;;;0.30;0.10;;;;;;;;;;4920673;29;20060;-80
2023/01/15 04:46:40;;;;;;;0.20;0.10;;;;;;;;;;4926265;29;20083;-81
2023/01/15 04:49:10;;;;;;;0.10;0.10;;;;;;;;;;4928147;29;20060;-81
2023/01/15 04:51:38;;;;;;;0.20;0.10;;;;;;;;;;4865389;29;20052;-79
2023/01/15 04:54:08;;;;;;;0.10;0.10;;;;;;;;;;4850087;29;20053;-80
2023/01/15 04:56:50;;;;;;;0.15;0.15;;;;;;;;;;4865038;29;20482;-81
2023/01/15 04:59:21;;;;;;;0.17;0.10;;;;;;;;;;4832184;29;20065;-79
2023/01/15 05:01:49;;;;;;;0.10;0.10;;;;;;;;;;4908040;29;20418;-80
2023/01/15 05:04:31;;;;;;;0.10;0.10;;;;;;;;;;4906744;29;20068;-78
2023/01/15 05:06:59;;;;;;;0.30;0.20;;;;;;;;;;4910961;29;20061;-80
2023/01/15 05:09:27;;;;;;;0.00;0.00;;;;;;;;;;4831331;29;20591;-79
2023/01/15 05:11:55;;;;;;;0.03;0.00;;;;;;;;;;4925507;29;20076;-80
2023/01/15 05:14:22;;;;;;;0.20;0.10;;;;;;;;;;4846917;29;20075;-79
2023/01/15 05:16:49;;;;;;;0.43;0.08;;;;;;;;;;4911008;29;20076;-80
2023/01/15 05:19:17;;;;;;;0.00;0.00;;;;;;;;;;4944131;28;20057;-81
2023/01/15 05:21:44;;;;;;;0.20;0.10;;;;;;;;;;4850414;29;20082;-81
2023/01/15 05:24:14;;;;;;;1.30;0.17;;;;;;;;;;4849703;29;20273;-80
2023/01/15 05:26:41;;;;;;;0.68;0.30;;;;;;;;;;4849945;29;20056;-81
2023/01/15 05:29:09;;;;;;;0.30;0.30;;;;;;;;;;4848785;29;20060;-82
2023/01/15 05:31:35;;;;;;;0.90;0.20;;;;;;;;;;4851690;29;20053;-81
2023/01/15 05:34:02;;;;;;;0.05;0.03;;;;;;;;;;4867616;29;20071;-83
2023/01/15 05:36:30;;;;;;;0.85;0.35;;;;;;;;;;4851771;29;20053;-83
2023/01/15 05:39:00;;;;;;;0.25;0.20;;;;;;;;;;4851946;29;20516;-82
2023/01/15 05:44:15;;;;;;;0.60;0.40;;;;;;;;;;4871983;29;20057;-83
2023/01/15 05:46:42;;;;;;;0.55;0.30;;;;;;;;;;4857657;29;20067;-81
2023/01/15 05:49:11;;;;;;;0.30;0.30;;;;;;;;;;4871051;29;20048;-83
2023/01/15 05:51:39;;;;;;;0.65;0.25;;;;;;;;;;4870626;29;20040;-82
2023/01/15 05:54:07;;;;;;;1.30;0.30;;;;;;;;;;4870324;29;20049;-81
2023/01/15 05:56:35;;;;;;;1.48;0.40;;;;;;;;;;4869764;29;20140;-82
2023/01/15 05:59:02;;;;;;;0.30;0.30;;;;;;;;;;4848902;29;20053;-81
2023/01/15 06:01:28;;;;;;;0.50;0.40;;;;;;;;;;4851343;29;20080;-83
2023/01/15 06:03:59;;;;;;;0.73;0.60;;;;;;;;;;4875192;29;20052;-82
2023/01/15 06:06:26;;;;;;;0.95;0.85;;;;;;;;;;4848963;29;20052;-83
2023/01/15 06:08:53;;;;;;;1.30;0.68;;;;;;;;;;4848428;29;20052;-83
2023/01/15 06:11:20;;;;;;;1.83;0.90;;;;;;;;;;4864218;29;20044;-83
2023/01/15 06:13:47;;;;;;;1.67;1.33;;;;;;;;;;4848825;29;20653;-81
2023/01/15 06:16:14;;;;;;;1.38;1.08;;;;;;;;;;4849149;29;20521;-82
2023/01/15 06:18:41;;;;;;;0.90;0.80;;;;;;;;;;4860695;29;20137;-82
2023/01/15 06:21:10;;;;;;;1.90;0.93;;;;;;;;;;4925293;29;20637;-82
2023/01/15 06:23:37;;;;;;;1.15;0.90;;;;;;;;;;4925736;29;20083;-82
2023/01/15 06:26:13;;;;;;;1.55;1.20;;;;;;;;;;4912564;29;20053;-81
2023/01/15 06:28:40;;;;;;;2.25;0.98;;;;;;;;;;4924381;29;20060;-82
2023/01/15 06:31:09;;;;;;;2.08;1.20;;;;;;;;;;4851017;29;20068;-82
2023/01/15 06:33:36;;;;;;;1.17;0.57;;;;;;;;;;4850924;29;20080;-84
2023/01/15 06:36:07;;;;;;;0.80;0.80;;;;;;;;;;4849126;29;20061;-83
2023/01/15 06:38:34;;;;;;;0.70;0.50;;;;;;;;;;4846715;29;20076;-82
2023/01/15 06:41:02;;;;;;;0.68;0.30;;;;;;;;;;4929715;29;20055;-83
2023/01/15 06:49:00;;;;;;;0.25;0.25;;;;;;;;;;4880850;29;20481;-82
2023/01/15 06:51:27;;;;;;;0.30;0.30;;;;;;;;;;4866507;29;20443;-81
2023/01/15 06:53:56;;;;;;;0.47;0.22;;;;;;;;;;4848999;29;20120;-82
2023/01/15 06:56:23;;;;;;;1.05;0.30;;;;;;;;;;4848026;29;20064;-82
2023/01/15 06:58:50;;;;;;;0.95;0.15;;;;;;;;;;4936689;23;20071;-82
2023/01/15 07:01:16;;;;;;;0.22;0.22;;;;;;;;;;5012600;28;20045;-83
2023/01/15 07:03:43;;;;;;;0.30;0.20;;;;;;;;;;4987854;28;20050;-80
2023/01/15 07:06:11;;;;;;;0.13;0.10;;;;;;;;;;4968008;28;20054;-83
2023/01/15 07:08:39;;;;;;;0.05;0.05;;;;;;;;;;4984502;28;20109;-82
2023/01/15 07:11:08;;;;;;;0.17;0.15;;;;;;;;;;4983467;28;20096;-81
2023/01/15 07:13:35;;;;;;;0.70;0.25;;;;;;;;;;4983201;28;20050;-82
2023/01/15 07:16:02;;;;;;;0.25;0.20;;;;;;;;;;4983256;28;20149;-79
2023/01/15 07:18:32;;;;;;;0.10;0.10;;;;;;;;;;4983403;28;20068;-80
2023/01/15 07:20:59;;;;;;;0.05;0.05;;;;;;;;;;4983160;28;20513;-80
2023/01/15 07:23:26;;;;;;;0.10;0.10;;;;;;;;;;4982509;28;20050;-78
2023/01/15 07:25:53;;;;;;;0.10;0.10;;;;;;;;;;4998322;28;20132;-79
2023/01/15 07:28:21;;;;;;;0.00;0.00;;;;;;;;;;4965880;28;20425;-80
2023/01/15 07:30:47;;;;;;;0.35;0.20;;;;;;;;;;4999304;28;20058;-80
2023/01/15 07:33:14;;;;;;;0.50;0.20;;;;;;;;;;4981958;28;20053;-85
2023/01/15 07:35:41;;;;;;;0.10;0.10;;;;;;;;;;4966615;28;20057;-83
2023/01/15 07:38:08;;;;;;;0.20;0.10;;;;;;;;;;4950433;28;20557;-84
2023/01/15 07:40:35;;;;;;;0.15;0.10;;;;;;;;;;4979856;28;20470;-82
2023/01/15 07:51:18;;;;;;;0.63;0.47;;;;;;;;;;4982854;28;20050;-84
2023/01/15 07:53:45;;;;;;;0.77;0.63;;;;;;;;;;4947632;28;20088;-83
2023/01/15 07:56:12;;;;;;;1.27;0.43;;;;;;;;;;4948578;28;20417;-83
2023/01/15 07:58:39;;;;;;;0.75;0.32;;;;;;;;;;4986346;28;20057;-81
2023/01/15 08:01:07;;;;;;;0.75;0.40;;;;;;;;;;4983444;28;20058;-83
2023/01/15 08:03:34;;;;;;;0.30;0.30;;;;;;;;;;4998345;28;20141;-83
2023/01/15 08:06:01;;;;;;;0.60;0.50;;;;;;;;;;4967451;28;20057;-82
2023/01/15 08:08:28;;;;;;;2.15;0.90;;;;;;;;;;4964044;28;20065;-83
2023/01/15 08:16:34;;;;;;;0.73;0.50;;;;;;;;;;5003660;28;20038;-84
2023/01/15 08:19:01;;;;;;;0.80;0.70;;;;;;;;;;4984561;28;20030;-85
2023/01/15 08:21:28;;;;;;;0.20;0.20;;;;;;;;;;4984373;28;20034;-84
2023/01/15 08:23:55;;;;;;;1.40;0.30;;;;;;;;;;4984135;28;20094;-85
2023/01/15 08:26:23;;;;;;;0.43;0.30;;;;;;;;;;5000901;28;20062;-89
2023/01/15 08:28:49;;;;;;;0.70;0.50;;;;;;;;;;5003041;28;20040;-80
2023/01/15 08:31:16;;;;;;;1.02;0.50;;;;;;;;;;5003259;28;20025;-85
2023/01/15 08:33:43;;;;;;;1.58;0.60;;;;;;;;;;5019415;28;20069;-84
2023/01/15 08:36:10;;;;;;;0.73;0.60;;;;;;;;;;4987604;28;20030;-83
2023/01/15 08:38:37;;;;;;;0.20;0.20;;;;;;;;;;4984584;28;20119;-82
2023/01/15 08:41:04;;;;;;;0.15;0.15;;;;;;;;;;5000072;28;20049;-82
2023/01/15 08:43:32;;;;;;;0.82;0.40;;;;;;;;;;5022088;28;20037;-85
2023/01/15 08:46:00;;;;;;;0.77;0.60;;;;;;;;;;5039572;28;20064;-82
2023/01/15 08:48:28;;;;;;;0.57;0.30;;;;;;;;;;4998364;28;20137;-86
2023/01/15 08:50:55;;;;;;;1.70;0.80;;;;;;;;;;5019766;28;20041;-82
2023/01/15 08:53:23;;;;;;;0.68;0.60;;;;;;;;;;5002840;28;20049;-83
2023/01/15 08:55:50;;;;;;;2.45;1.55;;;;;;;;;;5003051;28;20134;-82
2023/01/15 08:58:17;;;;;;;1.38;1.05;;;;;;;;;;5002779;28;20042;-82
2023/01/15 09:00:44;;;;;;;0.40;0.40;;;;;;;;;;5003206;28;20065;-90
2023/01/15 09:03:10;;;;;;;0.65;0.63;;;;;;;;;;5003097;28;20113;-83
2023/01/15 09:05:37;;;;;;;0.82;0.30;;;;;;;;;;4985510;28;20046;-83
2023/01/15 09:08:05;;;;;;;0.77;0.47;;;;;;;;;;4992870;28;20056;-82
2023/01/15 09:10:33;;;;;;;0.73;0.38;;;;;;;;;;4977194;28;20058;-81
2023/01/15 09:13:01;;;;;;;0.88;0.65;;;;;;;;;;4976577;28;20057;-83
2023/01/15 09:15:28;;;;;;;0.98;0.85;;;;;;;;;;4960232;28;20061;-82
2023/01/15 09:17:55;;;;;;;0.40;0.38;;;;;;;;;;4960246;28;20054;-83
2023/01/15 09:20:22;;;;;;;0.40;0.38;;;;;;;;;;4982128;28;20038;-83
2023/01/15 09:22:50;;;;;;;0.75;0.30;;;;;;;;;;4976103;28;20050;-84
2023/01/15 09:25:18;;;;;;;0.98;0.35;;;;;;;;;;4996148;28;20085;-82
2023/01/15 09:27:45;;;;;;;0.40;0.30;;;;;;;;;;4981536;28;20060;-83
2023/01/15 09:30:18;;;;;;;0.57;0.30;;;;;;;;;;4981582;28;20069;-82
2023/01/15 09:32:45;;;;;;;0.50;0.25;;;;;;;;;;4996007;28;20046;-82
2023/01/15 09:35:12;;;;;;;0.20;0.20;;;;;;;;;;4979676;28;20054;-82
2023/01/15 09:37:39;;;;;;;0.43;0.40;;;;;;;;;;4962665;28;20391;-81
2023/01/15 09:40:08;;;;;;;0.60;0.50;;;;;;;;;;4981402;28;20056;-81
2023/01/15 09:42:57;;;;;;;0.10;0.10;;;;;;;;;;4981121;28;20030;-82
2023/01/15 09:45:27;;;;;;;0.38;0.30;;;;;;;;;;5018025;28;20457;-81
2023/01/15 09:48:06;;;;;;;1.27;0.60;;;;;;;;;;5009142;28;20729;-81
2023/01/15 09:50:45;;;;;;;0.80;0.65;;;;;;;;;;5007683;28;20050;-81
2023/01/15 09:53:34;;;;;;;0.30;0.30;;;;;;;;;;4998371;28;20065;-80
2023/01/15 09:56:01;;;;;;;0.98;0.75;;;;;;;;;;4984210;28;20126;-86
2023/01/15 09:58:38;;;;;;;0.50;0.50;;;;;;;;;;4975421;28;20054;-83
2023/01/15 10:01:06;;;;;;;0.45;0.45;;;;;;;;;;4959245;28;20057;-84
2023/01/15 10:03:47;;;;;;;0.88;0.30;;;;;;;;;;4973693;28;20076;-83
2023/01/15 10:06:23;;;;;;;0.17;0.10;;;;;;;;;;4952220;28;20053;-83
2023/01/15 10:09:21;;;;;;;0.20;0.20;;;;;;;;;;4966537;28;20058;-81
2023/01/15 10:15:01;;;;;;;1.02;0.60;;;;;;;;;;4990540;28;20047;-82
2023/01/15 10:17:33;;;;;;;0.40;0.20;;;;;;;;;;4989952;28;20065;-82
2023/01/15 10:20:00;;;;;;;0.90;0.50;;;;;;;;;;4991328;28;20064;-83
2023/01/15 10:22:39;;;;;;;1.25;0.95;;;;;;;;;;4996208;28;20034;-83
2023/01/15 10:25:13;;;;;;;0.40;0.30;;;;;;;;;;5010796;28;20054;-83
2023/01/15 10:27:47;;;;;;;0.20;0.13;;;;;;;;;;5000764;28;20046;-84
2023/01/15 10:30:14;;;;;;;;;;;;;;;;;;4995256;28;20029;-84
2023/01/15 10:32:57;;;;;;;1.38;0.35;;;;;;;;;;5001193;28;19962;-83
2023/01/15 10:36:04;;;;;;;0.40;0.30;;;;;;;;;;4985863;28;20026;-81
2023/01/15 10:38:43;;;;;;;0.45;0.30;;;;;;;;;;4962340;28;20053;-83
2023/01/15 10:41:19;;;;;;;0.20;0.20;;;;;;;;;;4990787;28;20272;-83
2023/01/15 10:44:11;;;;;;;0.20;0.20;;;;;;;;;;4993158;28;20466;-85
2023/01/15 10:46:39;;;;;;;0.10;0.00;;;;;;;;;;4973244;28;20048;-83
2023/01/15 10:49:14;;;;;;;0.30;0.22;;;;;;;;;;4998043;28;20134;-83
2023/01/15 10:51:52;;;;;;;0.90;0.30;;;;;;;;;;4982949;28;20065;-83
2023/01/15 10:54:28;;;;;;;0.10;0.10;;;;;;;;;;4995299;28;20046;-82
2023/01/15 10:57:10;;;;;;;0.40;0.10;;;;;;;;;;5008907;28;20110;-83
2023/01/15 11:00:04;;;;;;;0.10;0.10;;;;;;;;;;4985692;28;20046;-79
2023/01/15 11:02:40;;;;;;;0.05;0.05;;;;;;;;;;4994420;28;20046;-81
2023/01/15 11:05:14;;;;;;;0.28;0.20;;;;;;;;;;4949622;28;20149;-81
2023/01/15 11:07:43;;;;;;;0.30;0.30;;;;;;;;;;4963396;28;20050;-81
2023/01/15 11:10:30;;;;;;;0.35;0.30;;;;;;;;;;4985088;28;20545;-80
2023/01/15 11:21:28;;;;;;;0.20;0.20;;;;;;;;;;4994635;28;20026;-83
2023/01/15 11:23:57;;;;;;;0.40;0.20;;;;;;;;;;4969411;28;20044;-83
2023/01/15 11:26:30;;;;;;;0.65;0.10;;;;;;;;;;4965213;28;20057;-85
2023/01/15 11:28:58;;;;;;;2.30;0.73;;;;;;;;;;4997202;28;20102;-84
2023/01/15 11:31:39;;;;;;;1.27;0.40;;;;;;;;;;4998135;28;20081;-85
2023/01/15 11:34:20;;;;;;;0.90;0.50;;;;;;;;;;4959115;28;20125;-83
2023/01/15 11:36:47;;;;;;;0.95;0.30;;;;;;;;;;4963822;28;20345;-82
2023/01/15 11:39:26;;;;;;;1.10;0.70;;;;;;;;;;4979862;28;20050;-83
2023/01/15 11:50:49;;;;;;;0.52;0.52;;;;;;;;;;4994621;28;20319;-86
2023/01/15 11:53:18;;;;;;;1.50;0.90;;;;;;;;;;4984782;28;20046;-87
2023/01/15 11:56:05;;;;;;;0.60;0.32;;;;;;;;;;4992318;28;20039;-85
2023/01/15 11:58:50;;;;;;;0.40;0.40;;;;;;;;;;4960796;28;20057;-85
2023/01/15 12:01:33;;;;;;;2.40;1.13;;;;;;;;;;4988863;28;20039;-84
2023/01/15 12:04:04;;;;;;;2.53;0.80;;;;;;;;;;4986837;28;20054;-84
2023/01/15 12:06:31;;;;;;;1.42;1.00;;;;;;;;;;4953211;28;20129;-81
2023/01/15 12:09:07;;;;;;;0.90;0.90;;;;;;;;;;4951085;28;20086;-83
2023/01/15 12:11:39;;;;;;;0.80;0.70;;;;;;;;;;4993366;28;20495;-81
2023/01/15 12:14:31;;;;;;;1.00;0.80;;;;;;;;;;4978562;28;20061;-83
2023/01/15 12:17:16;;;;;;;1.73;0.70;;;;;;;;;;4948402;28;20194;-82
2023/01/15 12:20:15;;;;;;;1.20;0.70;;;;;;;;;;5007724;28;20045;-86
2023/01/15 12:22:45;;;;;;;2.65;1.00;;;;;;;;;;5010710;28;20062;-84
2023/01/15 12:25:33;;;;;;;0.70;0.50;;;;;;;;;;5012448;28;20050;-83
2023/01/15 12:28:09;;;;;;;4.55;1.45;;;;;;;;;;5008902;28;20050;-84
2023/01/15 12:30:40;;;;;;;1.60;0.75;;;;;;;;;;4991163;28;20042;-84
2023/01/15 12:33:20;;;;;;;2.15;1.25;;;;;;;;;;4991837;28;20320;-84
2023/01/15 12:35:55;;;;;;;1.30;0.60;;;;;;;;;;4991784;28;20319;-83
2023/01/15 12:38:46;;;;;;;1.48;0.93;;;;;;;;;;4986655;28;20085;-85
2023/01/15 12:47:16;;;;;;;0.80;0.70;;;;;;;;;;4991665;28;20058;-82
2023/01/15 12:49:45;;;;;;;1.15;0.93;;;;;;;;;;4992883;28;20062;-83
2023/01/15 12:52:23;;;;;;;0.93;0.60;;;;;;;;;;4991726;28;20091;-84
2023/01/15 12:54:57;;;;;;;1.02;0.65;;;;;;;;;;4988163;28;20046;-84
2023/01/15 12:57:35;;;;;;;1.10;0.80;;;;;;;;;;4983609;28;20055;-82
2023/01/15 13:00:08;;;;;;;2.38;1.05;;;;;;;;;;4960233;28;20057;-82
2023/01/15 13:02:54;;;;;;;0.90;0.80;;;;;;;;;;4983337;28;20050;-82
2023/01/15 13:05:47;;;;;;;1.20;1.10;;;;;;;;;;4943037;28;20062;-82
2023/01/15 13:08:43;;;;;;;0.40;0.40;;;;;;;;;;4975636;28;20046;-76
2023/01/15 13:11:13;;;;;;;1.00;0.57;;;;;;;;;;4957375;28;20054;-81
2023/01/15 13:13:41;;;;;;;2.75;0.63;;;;;;;;;;4945698;28;20046;-82
2023/01/15 13:16:37;;;;;;;0.65;0.57;;;;;;;;;;4946469;28;20431;-82
2023/01/15 13:19:43;;;;;;;2.40;1.10;;;;;;;;;;4956566;28;20561;-81
2023/01/15 13:22:14;;;;;;;3.45;1.77;;;;;;;;;;4932195;28;20058;-82
2023/01/15 13:25:13;;;;;;;2.38;1.10;;;;;;;;;;4956295;28;20046;-84
2023/01/15 13:27:44;;;;;;;1.95;1.10;;;;;;;;;;4936999;28;20411;-80
2023/01/15 13:30:14;;;;;;;6.25;2.35;;;;;;;;;;4974087;28;20069;-82
2023/01/15 13:32:49;;;;;;;4.75;1.90;;;;;;;;;;4994847;28;20050;-81
2023/01/15 13:35:29;;;;;;;4.60;2.20;;;;;;;;;;4949534;28;20058;-82
2023/01/15 13:38:01;;;;;;;3.45;1.40;;;;;;;;;;4980847;28;20086;-81
2023/01/15 13:40:37;;;;;;;2.63;1.05;;;;;;;;;;4961981;28;20072;-80
2023/01/15 13:43:06;;;;;;;2.92;1.15;;;;;;;;;;4963482;28;20050;-79
2023/01/15 13:45:53;;;;;;;1.80;1.17;;;;;;;;;;4955089;28;20054;-80
2023/01/15 13:48:39;;;;;;;3.17;1.65;;;;;;;;;;4964577;28;20061;-79
2023/01/15 13:51:07;;;;;;;4.93;2.50;;;;;;;;;;4952681;28;20059;-80
2023/01/15 13:53:46;;;;;;;4.95;3.20;;;;;;;;;;4957648;28;20117;-80
2023/01/15 13:56:26;;;;;;;5.55;2.28;;;;;;;;;;4956400;28;20062;-79
2023/01/15 13:58:59;;;;;;;5.07;2.33;;;;;;;;;;4989833;28;20077;-79
2023/01/15 14:01:29;;;;;;;3.10;1.15;;;;;;;;;;4957293;28;20073;-80
2023/01/15 14:04:11;;;;;;;1.85;0.60;;;;;;;;;;4986037;28;20039;-80
2023/01/15 14:06:48;;;;;;;2.22;1.20;;;;;;;;;;4973754;28;20053;-79
2023/01/15 14:09:21;;;;;;;1.55;0.60;;;;;;;;;;4959741;28;20073;-80
2023/01/15 14:11:54;;;;;;;;;;;;;;;;;;4988811;28;20097;-80
2023/01/15 14:14:52;;;;;;;0.80;0.45;;;;;;;;;;5005872;28;20182;-80
2023/01/15 14:17:38;;;;;;;3.78;1.20;;;;;;;;;;4993083;28;20050;-80
2023/01/15 14:20:32;;;;;;;2.15;1.17;;;;;;;;;;4984799;28;20058;-80
2023/01/15 14:23:26;;;;;;;2.53;1.05;;;;;;;;;;4980199;28;20077;-80
2023/01/15 14:26:17;;;;;;;4.30;1.20;;;;;;;;;;4985142;28;20054;-79
2023/01/15 14:29:29;;;;;;;2.40;1.17;;;;;;;;;;4984751;28;20117;-79
2023/01/15 14:32:10;;;;;;;4.65;1.35;;;;;;;;;;4976474;28;20057;-78
2023/01/15 14:34:36;;;;;;;2.63;0.55;;;;;;;;;;4976805;28;20042;-80
2023/01/15 14:37:24;;;;;;;2.03;0.57;;;;;;;;;;4964083;28;20065;-80
2023/01/15 14:39:54;;;;;;;1.17;0.55;;;;;;;;;;4965133;28;20050;-80
2023/01/15 14:45:09;;;;;;;2.00;0.75;;;;;;;;;;4991985;28;20062;-80
2023/01/15 14:47:59;;;;;;;1.83;0.60;;;;;;;;;;4969603;28;20054;-79
2023/01/15 14:50:37;;;;;;;2.05;0.50;;;;;;;;;;4952395;28;20077;-79
2023/01/15 14:53:04;;;;;;;6.30;1.10;;;;;;;;;;4969001;28;20066;-79
2023/01/15 14:55:32;;;;;;;14.45;6.22;;;;;;;;;;4984694;28;20050;-80
2023/01/15 14:58:10;;;;;;;3.22;1.10;;;;;;;;;;4961104;28;20050;-80
2023/01/15 15:00:39;;;;;;;3.55;1.00;;;;;;;;;;4972001;28;20050;-79
2023/01/15 15:03:16;;;;;;;4.85;1.40;;;;;;;;;;4956492;28;20109;-80
2023/01/15 15:05:44;;;;;;;2.40;0.60;;;;;;;;;;4973672;28;20050;-79
2023/01/15 15:08:16;;;;;;;1.40;0.73;;;;;;;;;;4972245;28;20058;-80
2023/01/15 15:10:43;;;;;;;3.55;0.93;;;;;;;;;;4940637;28;20774;-80
2023/01/15 15:13:27;;;;;;;3.90;1.42;;;;;;;;;;4945805;28;20060;-81
2023/01/15 15:16:05;;;;;;;2.53;0.82;;;;;;;;;;4962238;28;20042;-79
2023/01/15 15:18:38;;;;;;;5.22;0.85;;;;;;;;;;4994444;28;20137;-79
2023/01/15 15:21:11;;;;;;;2.97;0.77;;;;;;;;;;4947251;28;20051;-81
2023/01/15 15:23:42;;;;;;;1.63;0.60;;;;;;;;;;4961276;28;20046;-80
2023/01/15 15:26:21;;;;;;;5.22;1.55;;;;;;;;;;4987434;28;20073;-80
2023/01/15 15:28:59;;;;;;;3.63;0.75;;;;;;;;;;4975367;28;20054;-80
2023/01/15 15:31:28;;;;;;;3.58;0.93;;;;;;;;;;4962122;28;20050;-80
2023/01/15 15:33:56;;;;;;;4.20;1.30;;;;;;;;;;4962076;28;20070;-80
2023/01/15 15:36:28;;;;;;;2.33;0.77;;;;;;;;;;4959637;28;20062;-80
2023/01/15 15:39:23;;;;;;;2.30;0.43;;;;;;;;;;4946090;28;20050;-80
2023/01/15 15:50:25;;;;;;;0.98;0.90;;;;;;;;;;4966690;28;20058;-80
2023/01/15 15:52:52;;;;;;;4.05;0.90;;;;;;;;;;4950216;28;20063;-80
2023/01/15 15:55:20;;;;;;;2.15;1.40;;;;;;;;;;4962093;28;20510;-80
2023/01/15 15:57:49;;;;;;;4.05;1.80;;;;;;;;;;4958500;28;20479;-80
2023/01/15 16:00:18;;;;;;;3.17;1.13;;;;;;;;;;4960207;28;20058;-80
2023/01/15 16:02:46;;;;;;;2.17;0.70;;;;;;;;;;4963624;28;20125;-81
2023/01/15 16:05:30;;;;;;;1.65;0.80;;;;;;;;;;4962603;28;20054;-80
2023/01/15 16:08:12;;;;;;;3.75;0.90;;;;;;;;;;4963019;28;20104;-79
2023/01/15 16:10:39;;;;;;;1.47;0.73;;;;;;;;;;4978472;28;20046;-80
2023/01/15 16:13:09;;;;;;;2.95;1.45;;;;;;;;;;4958347;28;20297;-80
2023/01/15 16:15:40;;;;;;;1.42;0.90;;;;;;;;;;4953923;28;20041;-84
2023/01/15 16:18:19;;;;;;;2.35;1.20;;;;;;;;;;4965973;28;20050;-82
2023/01/15 16:20:46;;;;;;;3.08;1.63;;;;;;;;;;4961802;28;20422;-76
2023/01/15 16:23:25;;;;;;;5.60;1.70;;;;;;;;;;4991975;28;20053;-74
2023/01/15 16:26:18;;;;;;;2.40;1.10;;;;;;;;;;4994967;28;20041;-80